Terminal Aerodrome Forecast
Issued by NWS Cleveland, OH

Home | Current Version | Previous Version | Text Only | Print | Product List | Glossary On
Versions: 1 2 3 4 5 6 7 8 9 10 11 12 13 14 15 16 17 18 19
000
FTUS41 KCLE 222334
TAFERI
TAF
KERI 222334Z 2300/2324 28008KT P6SM OVC035
      TEMPO 2300/2302 -SN BKN028
     FM230600 23006KT P6SM BKN028
     FM231300 20008KT P6SM SCT035 OVC090
     FM231800 22010G18KT P6SM BKN050=

USA.gov is the U.S. government's official web portal to all federal, state and local government web resources and services.